Terminal Aerodrome Forecast
Issued by NWS Tiyan, Guam

Home | Current Version | Previous Version | Text Only | Print | Product List | Glossary On
Versions: 1 2 3 4 5 6 7 8 9 10 11 12 13 14 15 16 17 18 19 20 21 22 23 24 25 26 27
000
FTPQ31 PGUM 011744
TAFGUM
TAF
PGUM 011744Z 0118/0224 03008KT P6SM FEW024
     FM012300 03016KT P6SM VCSH SCT024 SCT050
     FM020800 03010KT P6SM VCSH SCT024 BKN050=

USA.gov is the U.S. government's official web portal to all federal, state and local government web resources and services.